sensor_id;sensor_type;location;lat;lon;timestamp;P1;durP1;ratioP1;P2;durP2;ratioP2
14663;SDS011;7419;52.184;5.944;2022-12-19T00:02:59;8.96;;;6.40;;
14663;SDS011;7419;52.184;5.944;2022-12-19T00:02:59;11.40;;;6.29;;
14663;SDS011;7419;52.184;5.944;2022-12-19T00:02:59;13.97;;;6.90;;
14663;SDS011;7419;52.184;5.944;2022-12-19T00:03:50;13.48;;;6.86;;
14663;SDS011;7419;52.184;5.944;2022-12-19T00:04:49;18.64;;;6.85;;
14663;SDS011;7419;52.184;5.944;2022-12-19T00:05:49;11.93;;;6.07;;
14663;SDS011;7419;52.184;5.944;2022-12-19T00:06:49;10.65;;;6.95;;
14663;SDS011;7419;52.184;5.944;2022-12-19T00:07:50;9.04;;;6.60;;
14663;SDS011;7419;52.184;5.944;2022-12-19T00:08:50;11.92;;;5.89;;
14663;SDS011;7419;52.184;5.944;2022-12-19T00:09:50;11.88;;;7.28;;
14663;SDS011;7419;52.184;5.944;2022-12-19T00:10:54;15.49;;;7.40;;
14663;SDS011;7419;52.184;5.944;2022-12-19T00:11:50;9.48;;;6.46;;
14663;SDS011;7419;52.184;5.944;2022-12-19T00:12:50;11.55;;;6.57;;
14663;SDS011;7419;52.184;5.944;2022-12-19T00:13:50;13.14;;;7.09;;
14663;SDS011;7419;52.184;5.944;2022-12-19T00:14:50;11.25;;;6.85;;
14663;SDS011;7419;52.184;5.944;2022-12-19T00:15:50;12.04;;;6.29;;
14663;SDS011;7419;52.184;5.944;2022-12-19T00:16:50;10.65;;;6.10;;
14663;SDS011;7419;52.184;5.944;2022-12-19T00:17:50;13.53;;;7.15;;
14663;SDS011;7419;52.184;5.944;2022-12-19T00:18:51;11.58;;;5.61;;
14663;SDS011;7419;52.184;5.944;2022-12-19T00:19:51;9.47;;;6.31;;
14663;SDS011;7419;52.184;5.944;2022-12-19T00:20:53;13.46;;;6.77;;
14663;SDS011;7419;52.184;5.944;2022-12-19T00:21:51;16.60;;;7.52;;
14663;SDS011;7419;52.184;5.944;2022-12-19T00:22:51;15.42;;;7.73;;
14663;SDS011;7419;52.184;5.944;2022-12-19T00:23:51;12.24;;;5.73;;
14663;SDS011;7419;52.184;5.944;2022-12-19T00:24:51;12.30;;;7.05;;
14663;SDS011;7419;52.184;5.944;2022-12-19T00:25:51;17.06;;;8.05;;
14663;SDS011;7419;52.184;5.944;2022-12-19T00:26:51;10.70;;;6.67;;
14663;SDS011;7419;52.184;5.944;2022-12-19T00:27:51;10.57;;;6.88;;
14663;SDS011;7419;52.184;5.944;2022-12-19T00:28:52;12.01;;;7.17;;
14663;SDS011;7419;52.184;5.944;2022-12-19T00:29:52;10.56;;;4.94;;
14663;SDS011;7419;52.184;5.944;2022-12-19T00:30:52;9.51;;;6.28;;
14663;SDS011;7419;52.184;5.944;2022-12-19T00:31:52;11.87;;;5.69;;
14663;SDS011;7419;52.184;5.944;2022-12-19T00:32:52;10.71;;;6.57;;
14663;SDS011;7419;52.184;5.944;2022-12-19T00:33:52;11.17;;;6.71;;
14663;SDS011;7419;52.184;5.944;2022-12-19T00:34:52;13.15;;;8.20;;
14663;SDS011;7419;52.184;5.944;2022-12-19T00:35:55;11.39;;;6.63;;
14663;SDS011;7419;52.184;5.944;2022-12-19T00:36:52;13.47;;;7.40;;
14663;SDS011;7419;52.184;5.944;2022-12-19T00:37:52;13.41;;;6.75;;
14663;SDS011;7419;52.184;5.944;2022-12-19T00:38:53;15.43;;;7.63;;
14663;SDS011;7419;52.184;5.944;2022-12-19T00:39:52;16.45;;;8.01;;
14663;SDS011;7419;52.184;5.944;2022-12-19T00:40:53;9.17;;;5.99;;
14663;SDS011;7419;52.184;5.944;2022-12-19T00:41:53;12.86;;;7.69;;
14663;SDS011;7419;52.184;5.944;2022-12-19T00:42:53;11.54;;;6.75;;
14663;SDS011;7419;52.184;5.944;2022-12-19T00:43:53;13.52;;;7.65;;
14663;SDS011;7419;52.184;5.944;2022-12-19T00:44:53;14.10;;;6.67;;
14663;SDS011;7419;52.184;5.944;2022-12-19T00:45:53;10.50;;;5.96;;
14663;SDS011;7419;52.184;5.944;2022-12-19T00:46:53;13.98;;;7.24;;
14663;SDS011;7419;52.184;5.944;2022-12-19T00:47:53;10.44;;;5.55;;
14663;SDS011;7419;52.184;5.944;2022-12-19T00:48:53;12.86;;;6.83;;
14663;SDS011;7419;52.184;5.944;2022-12-19T00:49:53;13.64;;;5.59;;
14663;SDS011;7419;52.184;5.944;2022-12-19T00:50:57;10.11;;;6.15;;
14663;SDS011;7419;52.184;5.944;2022-12-19T00:51:53;14.21;;;5.93;;
14663;SDS011;7419;52.184;5.944;2022-12-19T00:52:54;11.03;;;6.82;;
14663;SDS011;7419;52.184;5.944;2022-12-19T00:53:54;19.75;;;6.49;;
14663;SDS011;7419;52.184;5.944;2022-12-19T00:54:54;11.83;;;6.69;;
14663;SDS011;7419;52.184;5.944;2022-12-19T00:55:54;11.01;;;6.92;;
14663;SDS011;7419;52.184;5.944;2022-12-19T00:56:54;15.28;;;7.57;;
14663;SDS011;7419;52.184;5.944;2022-12-19T00:57:54;14.93;;;6.79;;
14663;SDS011;7419;52.184;5.944;2022-12-19T00:58:54;13.25;;;6.71;;
14663;SDS011;7419;52.184;5.944;2022-12-19T00:59:54;20.63;;;7.61;;
14663;SDS011;7419;52.184;5.944;2022-12-19T01:00:54;14.62;;;6.87;;
14663;SDS011;7419;52.184;5.944;2022-12-19T01:01:54;12.78;;;6.67;;
14663;SDS011;7419;52.184;5.944;2022-12-19T01:02:54;11.81;;;6.04;;
14663;SDS011;7419;52.184;5.944;2022-12-19T01:03:56;13.93;;;6.95;;
14663;SDS011;7419;52.184;5.944;2022-12-19T01:04:55;12.75;;;6.35;;
14663;SDS011;7419;52.184;5.944;2022-12-19T01:05:55;13.25;;;7.03;;
14663;SDS011;7419;52.184;5.944;2022-12-19T01:06:55;11.51;;;6.59;;
14663;SDS011;7419;52.184;5.944;2022-12-19T01:07:55;12.61;;;6.45;;
14663;SDS011;7419;52.184;5.944;2022-12-19T01:08:55;12.55;;;6.03;;
14663;SDS011;7419;52.184;5.944;2022-12-19T01:09:55;9.95;;;5.97;;
14663;SDS011;7419;52.184;5.944;2022-12-19T01:10:55;8.82;;;5.72;;
14663;SDS011;7419;52.184;5.944;2022-12-19T01:11:55;12.87;;;6.09;;
14663;SDS011;7419;52.184;5.944;2022-12-19T01:12:56;10.82;;;6.19;;
14663;SDS011;7419;52.184;5.944;2022-12-19T01:13:55;13.06;;;6.51;;
14663;SDS011;7419;52.184;5.944;2022-12-19T01:14:56;9.80;;;5.00;;
14663;SDS011;7419;52.184;5.944;2022-12-19T01:15:56;9.02;;;5.56;;
14663;SDS011;7419;52.184;5.944;2022-12-19T01:16:56;10.94;;;5.27;;
14663;SDS011;7419;52.184;5.944;2022-12-19T01:17:56;12.96;;;6.12;;
14663;SDS011;7419;52.184;5.944;2022-12-19T01:18:56;11.45;;;6.65;;
14663;SDS011;7419;52.184;5.944;2022-12-19T01:19:56;7.41;;;5.92;;
14663;SDS011;7419;52.184;5.944;2022-12-19T01:21:00;8.19;;;5.49;;
14663;SDS011;7419;52.184;5.944;2022-12-19T01:21:56;11.14;;;5.52;;
14663;SDS011;7419;52.184;5.944;2022-12-19T01:22:57;10.05;;;5.20;;
14663;SDS011;7419;52.184;5.944;2022-12-19T01:23:56;9.36;;;5.67;;
14663;SDS011;7419;52.184;5.944;2022-12-19T01:24:56;13.90;;;6.75;;
14663;SDS011;7419;52.184;5.944;2022-12-19T01:25:57;15.34;;;5.48;;
14663;SDS011;7419;52.184;5.944;2022-12-19T01:26:57;10.34;;;6.02;;
14663;SDS011;7419;52.184;5.944;2022-12-19T01:27:57;12.62;;;6.82;;
14663;SDS011;7419;52.184;5.944;2022-12-19T01:28:57;8.97;;;5.28;;
14663;SDS011;7419;52.184;5.944;2022-12-19T01:29:57;10.86;;;6.11;;
14663;SDS011;7419;52.184;5.944;2022-12-19T01:30:57;9.35;;;5.22;;
14663;SDS011;7419;52.184;5.944;2022-12-19T01:31:57;9.69;;;6.07;;
14663;SDS011;7419;52.184;5.944;2022-12-19T01:32:57;10.30;;;5.83;;
14663;SDS011;7419;52.184;5.944;2022-12-19T01:33:57;8.38;;;5.60;;
14663;SDS011;7419;52.184;5.944;2022-12-19T01:34:57;10.97;;;6.10;;
14663;SDS011;7419;52.184;5.944;2022-12-19T01:35:57;13.48;;;5.92;;
14663;SDS011;7419;52.184;5.944;2022-12-19T01:36:57;9.69;;;5.09;;
14663;SDS011;7419;52.184;5.944;2022-12-19T01:37:58;9.23;;;4.84;;
14663;SDS011;7419;52.184;5.944;2022-12-19T01:38:58;8.19;;;5.23;;
14663;SDS011;7419;52.184;5.944;2022-12-19T01:39:58;8.39;;;5.26;;
14663;SDS011;7419;52.184;5.944;2022-12-19T01:40:58;10.55;;;5.53;;
14663;SDS011;7419;52.184;5.944;2022-12-19T01:41:58;6.72;;;4.16;;
14663;SDS011;7419;52.184;5.944;2022-12-19T01:42:58;11.04;;;6.14;;
14663;SDS011;7419;52.184;5.944;2022-12-19T01:43:59;9.72;;;5.46;;
14663;SDS011;7419;52.184;5.944;2022-12-19T01:45:03;8.05;;;5.72;;
14663;SDS011;7419;52.184;5.944;2022-12-19T01:45:59;9.66;;;5.44;;
14663;SDS011;7419;52.184;5.944;2022-12-19T01:46:58;8.00;;;4.50;;
14663;SDS011;7419;52.184;5.944;2022-12-19T01:48:00;8.58;;;5.67;;
14663;SDS011;7419;52.184;5.944;2022-12-19T01:48:58;12.22;;;4.59;;
14663;SDS011;7419;52.184;5.944;2022-12-19T01:49:58;8.24;;;5.18;;
14663;SDS011;7419;52.184;5.944;2022-12-19T01:50:59;6.75;;;5.11;;
14663;SDS011;7419;52.184;5.944;2022-12-19T01:51:59;8.40;;;4.51;;
14663;SDS011;7419;52.184;5.944;2022-12-19T01:52:59;6.95;;;5.02;;
14663;SDS011;7419;52.184;5.944;2022-12-19T01:54:00;7.97;;;4.67;;
14663;SDS011;7419;52.184;5.944;2022-12-19T01:54:59;11.47;;;6.02;;
14663;SDS011;7419;52.184;5.944;2022-12-19T01:55:59;9.47;;;5.34;;
14663;SDS011;7419;52.184;5.944;2022-12-19T01:56:59;7.74;;;4.32;;
14663;SDS011;7419;52.184;5.944;2022-12-19T01:57:59;7.14;;;5.49;;
14663;SDS011;7419;52.184;5.944;2022-12-19T01:59:01;7.39;;;5.18;;
14663;SDS011;7419;52.184;5.944;2022-12-19T01:59:59;9.67;;;5.78;;
14663;SDS011;7419;52.184;5.944;2022-12-19T02:00:59;8.36;;;5.15;;
14663;SDS011;7419;52.184;5.944;2022-12-19T02:02:01;10.34;;;5.53;;
14663;SDS011;7419;52.184;5.944;2022-12-19T02:03:01;8.85;;;6.00;;
14663;SDS011;7419;52.184;5.944;2022-12-19T02:03:59;8.98;;;5.94;;
14663;SDS011;7419;52.184;5.944;2022-12-19T02:05:00;8.07;;;5.39;;
14663;SDS011;7419;52.184;5.944;2022-12-19T02:06:00;9.49;;;5.61;;
14663;SDS011;7419;52.184;5.944;2022-12-19T02:07:00;7.54;;;5.20;;
14663;SDS011;7419;52.184;5.944;2022-12-19T02:08:00;9.13;;;5.07;;
14663;SDS011;7419;52.184;5.944;2022-12-19T02:09:00;8.79;;;5.55;;
14663;SDS011;7419;52.184;5.944;2022-12-19T02:10:00;10.07;;;4.90;;
14663;SDS011;7419;52.184;5.944;2022-12-19T02:11:00;6.41;;;5.56;;
14663;SDS011;7419;52.184;5.944;2022-12-19T02:12:00;10.21;;;5.95;;
14663;SDS011;7419;52.184;5.944;2022-12-19T02:13:00;11.83;;;5.66;;
14663;SDS011;7419;52.184;5.944;2022-12-19T02:14:00;8.90;;;4.81;;
14663;SDS011;7419;52.184;5.944;2022-12-19T02:15:00;8.89;;;5.31;;
14663;SDS011;7419;52.184;5.944;2022-12-19T02:16:01;9.44;;;5.42;;
14663;SDS011;7419;52.184;5.944;2022-12-19T02:17:02;10.11;;;5.53;;
14663;SDS011;7419;52.184;5.944;2022-12-19T02:18:03;13.59;;;6.16;;
14663;SDS011;7419;52.184;5.944;2022-12-19T02:19:03;8.27;;;4.61;;
14663;SDS011;7419;52.184;5.944;2022-12-19T02:20:09;10.91;;;5.56;;
14663;SDS011;7419;52.184;5.944;2022-12-19T02:21:06;9.39;;;5.97;;
14663;SDS011;7419;52.184;5.944;2022-12-19T02:22:02;9.11;;;5.94;;
14663;SDS011;7419;52.184;5.944;2022-12-19T02:23:05;10.09;;;6.22;;
14663;SDS011;7419;52.184;5.944;2022-12-19T02:24:08;9.17;;;5.14;;
14663;SDS011;7419;52.184;5.944;2022-12-19T02:25:09;10.82;;;5.47;;
14663;SDS011;7419;52.184;5.944;2022-12-19T02:26:06;11.95;;;6.60;;
14663;SDS011;7419;52.184;5.944;2022-12-19T02:27:05;8.91;;;5.62;;
14663;SDS011;7419;52.184;5.944;2022-12-19T02:28:04;14.10;;;6.66;;
14663;SDS011;7419;52.184;5.944;2022-12-19T02:29:05;10.43;;;6.56;;
14663;SDS011;7419;52.184;5.944;2022-12-19T02:30:03;9.63;;;5.38;;
14663;SDS011;7419;52.184;5.944;2022-12-19T02:31:04;8.39;;;5.45;;
14663;SDS011;7419;52.184;5.944;2022-12-19T02:32:02;7.69;;;5.92;;
14663;SDS011;7419;52.184;5.944;2022-12-19T02:33:02;9.91;;;5.92;;
14663;SDS011;7419;52.184;5.944;2022-12-19T02:34:02;14.17;;;6.37;;
14663;SDS011;7419;52.184;5.944;2022-12-19T02:35:05;10.53;;;6.49;;
14663;SDS011;7419;52.184;5.944;2022-12-19T02:36:03;12.23;;;6.24;;
14663;SDS011;7419;52.184;5.944;2022-12-19T02:37:02;8.04;;;4.91;;
14663;SDS011;7419;52.184;5.944;2022-12-19T02:38:06;7.15;;;5.02;;
14663;SDS011;7419;52.184;5.944;2022-12-19T02:39:02;10.31;;;5.85;;
14663;SDS011;7419;52.184;5.944;2022-12-19T02:40:03;9.01;;;5.05;;
14663;SDS011;7419;52.184;5.944;2022-12-19T02:41:03;10.53;;;5.51;;
14663;SDS011;7419;52.184;5.944;2022-12-19T02:42:02;9.66;;;5.01;;
14663;SDS011;7419;52.184;5.944;2022-12-19T02:43:02;11.63;;;6.18;;
14663;SDS011;7419;52.184;5.944;2022-12-19T02:44:02;9.73;;;5.70;;
14663;SDS011;7419;52.184;5.944;2022-12-19T02:45:03;10.12;;;5.78;;
14663;SDS011;7419;52.184;5.944;2022-12-19T02:46:02;13.43;;;6.76;;
14663;SDS011;7419;52.184;5.944;2022-12-19T02:47:02;8.90;;;5.95;;
14663;SDS011;7419;52.184;5.944;2022-12-19T02:48:02;14.95;;;6.74;;
14663;SDS011;7419;52.184;5.944;2022-12-19T02:49:02;9.36;;;6.28;;
14663;SDS011;7419;52.184;5.944;2022-12-19T02:50:03;11.75;;;5.89;;
14663;SDS011;7419;52.184;5.944;2022-12-19T02:51:02;10.71;;;5.51;;
14663;SDS011;7419;52.184;5.944;2022-12-19T02:52:09;11.02;;;6.57;;
14663;SDS011;7419;52.184;5.944;2022-12-19T02:53:02;10.23;;;5.96;;
14663;SDS011;7419;52.184;5.944;2022-12-19T02:54:02;8.98;;;5.92;;
14663;SDS011;7419;52.184;5.944;2022-12-19T02:55:03;8.61;;;4.79;;
14663;SDS011;7419;52.184;5.944;2022-12-19T02:56:06;9.96;;;6.20;;
14663;SDS011;7419;52.184;5.944;2022-12-19T02:57:04;13.76;;;6.36;;
14663;SDS011;7419;52.184;5.944;2022-12-19T02:58:08;10.44;;;5.79;;
14663;SDS011;7419;52.184;5.944;2022-12-19T02:59:22;9.38;;;6.51;;
14663;SDS011;7419;52.184;5.944;2022-12-19T03:00:05;10.75;;;5.92;;
14663;SDS011;7419;52.184;5.944;2022-12-19T03:01:05;11.45;;;5.97;;
14663;SDS011;7419;52.184;5.944;2022-12-19T03:02:03;12.34;;;6.25;;
14663;SDS011;7419;52.184;5.944;2022-12-19T03:03:04;9.58;;;5.47;;
14663;SDS011;7419;52.184;5.944;2022-12-19T03:04:07;12.29;;;7.01;;
14663;SDS011;7419;52.184;5.944;2022-12-19T03:05:04;11.34;;;5.39;;
14663;SDS011;7419;52.184;5.944;2022-12-19T03:06:03;14.57;;;7.49;;
14663;SDS011;7419;52.184;5.944;2022-12-19T03:07:03;12.84;;;6.14;;
14663;SDS011;7419;52.184;5.944;2022-12-19T03:08:05;14.55;;;7.02;;
14663;SDS011;7419;52.184;5.944;2022-12-19T03:09:05;11.19;;;6.28;;
14663;SDS011;7419;52.184;5.944;2022-12-19T03:10:05;13.21;;;7.34;;
14663;SDS011;7419;52.184;5.944;2022-12-19T03:11:03;14.36;;;7.40;;
14663;SDS011;7419;52.184;5.944;2022-12-19T03:12:04;14.31;;;7.93;;
14663;SDS011;7419;52.184;5.944;2022-12-19T03:13:04;16.43;;;7.49;;
14663;SDS011;7419;52.184;5.944;2022-12-19T03:14:04;12.57;;;7.80;;
14663;SDS011;7419;52.184;5.944;2022-12-19T03:15:03;12.34;;;6.93;;
14663;SDS011;7419;52.184;5.944;2022-12-19T03:16:03;12.98;;;7.41;;
14663;SDS011;7419;52.184;5.944;2022-12-19T03:17:03;12.65;;;7.04;;
14663;SDS011;7419;52.184;5.944;2022-12-19T03:18:03;13.00;;;7.06;;
14663;SDS011;7419;52.184;5.944;2022-12-19T03:19:03;12.87;;;6.77;;
14663;SDS011;7419;52.184;5.944;2022-12-19T03:20:05;16.25;;;7.35;;
14663;SDS011;7419;52.184;5.944;2022-12-19T03:21:04;11.61;;;6.49;;
14663;SDS011;7419;52.184;5.944;2022-12-19T03:22:03;12.86;;;7.06;;
14663;SDS011;7419;52.184;5.944;2022-12-19T03:23:03;14.17;;;7.47;;
14663;SDS011;7419;52.184;5.944;2022-12-19T03:24:03;14.76;;;7.88;;
14663;SDS011;7419;52.184;5.944;2022-12-19T03:25:03;13.63;;;7.62;;
14663;SDS011;7419;52.184;5.944;2022-12-19T03:26:04;14.54;;;7.15;;
14663;SDS011;7419;52.184;5.944;2022-12-19T03:27:05;15.84;;;7.28;;
14663;SDS011;7419;52.184;5.944;2022-12-19T03:28:05;13.27;;;7.12;;
14663;SDS011;7419;52.184;5.944;2022-12-19T03:29:04;11.93;;;6.62;;
14663;SDS011;7419;52.184;5.944;2022-12-19T03:30:06;12.31;;;6.95;;
14663;SDS011;7419;52.184;5.944;2022-12-19T03:31:03;10.30;;;6.56;;
14663;SDS011;7419;52.184;5.944;2022-12-19T03:32:04;11.96;;;6.53;;
14663;SDS011;7419;52.184;5.944;2022-12-19T03:33:03;13.26;;;6.14;;
14663;SDS011;7419;52.184;5.944;2022-12-19T03:34:04;13.42;;;7.30;;
14663;SDS011;7419;52.184;5.944;2022-12-19T03:35:04;17.44;;;7.43;;
14663;SDS011;7419;52.184;5.944;2022-12-19T03:36:04;13.60;;;6.65;;
14663;SDS011;7419;52.184;5.944;2022-12-19T03:37:04;13.81;;;6.69;;
14663;SDS011;7419;52.184;5.944;2022-12-19T03:38:03;14.56;;;7.19;;
14663;SDS011;7419;52.184;5.944;2022-12-19T03:39:03;9.72;;;5.62;;
14663;SDS011;7419;52.184;5.944;2022-12-19T03:40:04;11.54;;;6.49;;
14663;SDS011;7419;52.184;5.944;2022-12-19T03:41:03;12.19;;;6.11;;
14663;SDS011;7419;52.184;5.944;2022-12-19T03:42:03;10.54;;;6.26;;
14663;SDS011;7419;52.184;5.944;2022-12-19T03:43:04;13.59;;;7.19;;
14663;SDS011;7419;52.184;5.944;2022-12-19T03:44:04;10.48;;;6.68;;
14663;SDS011;7419;52.184;5.944;2022-12-19T03:45:04;13.92;;;6.96;;
14663;SDS011;7419;52.184;5.944;2022-12-19T03:46:04;13.79;;;7.95;;
14663;SDS011;7419;52.184;5.944;2022-12-19T03:47:04;12.44;;;6.75;;
14663;SDS011;7419;52.184;5.944;2022-12-19T03:48:05;14.42;;;7.31;;
14663;SDS011;7419;52.184;5.944;2022-12-19T03:49:04;9.99;;;6.53;;
14663;SDS011;7419;52.184;5.944;2022-12-19T03:50:04;13.81;;;6.85;;
14663;SDS011;7419;52.184;5.944;2022-12-19T03:51:06;10.47;;;6.31;;
14663;SDS011;7419;52.184;5.944;2022-12-19T03:52:10;11.75;;;6.35;;
14663;SDS011;7419;52.184;5.944;2022-12-19T03:53:07;12.11;;;6.61;;
14663;SDS011;7419;52.184;5.944;2022-12-19T03:54:05;14.64;;;6.31;;
14663;SDS011;7419;52.184;5.944;2022-12-19T03:55:05;14.53;;;6.27;;
14663;SDS011;7419;52.184;5.944;2022-12-19T03:56:06;16.11;;;6.32;;
14663;SDS011;7419;52.184;5.944;2022-12-19T03:57:05;11.02;;;6.64;;
14663;SDS011;7419;52.184;5.944;2022-12-19T03:58:05;9.61;;;5.95;;
14663;SDS011;7419;52.184;5.944;2022-12-19T03:59:05;10.72;;;6.58;;
14663;SDS011;7419;52.184;5.944;2022-12-19T04:00:06;13.76;;;6.73;;
14663;SDS011;7419;52.184;5.944;2022-12-19T04:01:04;9.53;;;6.00;;
14663;SDS011;7419;52.184;5.944;2022-12-19T04:02:04;11.34;;;6.61;;
14663;SDS011;7419;52.184;5.944;2022-12-19T04:03:04;11.48;;;6.06;;
14663;SDS011;7419;52.184;5.944;2022-12-19T04:04:04;12.17;;;6.45;;
14663;SDS011;7419;52.184;5.944;2022-12-19T04:05:08;12.21;;;5.73;;
14663;SDS011;7419;52.184;5.944;2022-12-19T04:06:04;14.44;;;6.94;;
14663;SDS011;7419;52.184;5.944;2022-12-19T04:07:04;10.46;;;6.12;;
14663;SDS011;7419;52.184;5.944;2022-12-19T04:08:05;10.60;;;6.79;;
14663;SDS011;7419;52.184;5.944;2022-12-19T04:09:05;11.54;;;6.30;;
14663;SDS011;7419;52.184;5.944;2022-12-19T04:10:05;11.62;;;6.29;;
14663;SDS011;7419;52.184;5.944;2022-12-19T04:11:06;11.51;;;6.68;;
14663;SDS011;7419;52.184;5.944;2022-12-19T04:12:06;10.19;;;5.97;;
14663;SDS011;7419;52.184;5.944;2022-12-19T04:13:06;11.91;;;7.26;;
14663;SDS011;7419;52.184;5.944;2022-12-19T04:14:06;11.91;;;5.82;;
14663;SDS011;7419;52.184;5.944;2022-12-19T04:15:05;13.12;;;6.79;;
14663;SDS011;7419;52.184;5.944;2022-12-19T04:16:06;12.44;;;6.53;;
14663;SDS011;7419;52.184;5.944;2022-12-19T04:17:07;11.86;;;6.54;;
14663;SDS011;7419;52.184;5.944;2022-12-19T04:18:05;11.68;;;6.22;;
14663;SDS011;7419;52.184;5.944;2022-12-19T04:19:07;9.84;;;5.80;;
14663;SDS011;7419;52.184;5.944;2022-12-19T04:20:06;10.75;;;6.48;;
14663;SDS011;7419;52.184;5.944;2022-12-19T04:21:07;11.92;;;6.16;;
14663;SDS011;7419;52.184;5.944;2022-12-19T04:22:06;13.44;;;6.21;;
14663;SDS011;7419;52.184;5.944;2022-12-19T04:23:07;8.91;;;5.69;;
14663;SDS011;7419;52.184;5.944;2022-12-19T04:24:07;9.82;;;6.82;;
14663;SDS011;7419;52.184;5.944;2022-12-19T04:25:06;12.42;;;5.55;;
14663;SDS011;7419;52.184;5.944;2022-12-19T04:26:06;10.68;;;5.63;;
14663;SDS011;7419;52.184;5.944;2022-12-19T04:27:06;8.86;;;6.03;;
14663;SDS011;7419;52.184;5.944;2022-12-19T04:28:07;8.71;;;5.98;;
14663;SDS011;7419;52.184;5.944;2022-12-19T04:29:06;8.46;;;5.91;;
14663;SDS011;7419;52.184;5.944;2022-12-19T04:30:06;10.88;;;6.06;;
14663;SDS011;7419;52.184;5.944;2022-12-19T04:31:06;9.44;;;5.72;;
14663;SDS011;7419;52.184;5.944;2022-12-19T04:32:06;8.14;;;6.05;;
14663;SDS011;7419;52.184;5.944;2022-12-19T04:33:06;12.00;;;5.60;;
14663;SDS011;7419;52.184;5.944;2022-12-19T04:34:06;10.29;;;5.86;;
14663;SDS011;7419;52.184;5.944;2022-12-19T04:35:06;12.02;;;5.64;;
14663;SDS011;7419;52.184;5.944;2022-12-19T04:36:06;10.15;;;5.96;;
14663;SDS011;7419;52.184;5.944;2022-12-19T04:37:06;8.91;;;5.54;;
14663;SDS011;7419;52.184;5.944;2022-12-19T04:38:06;11.19;;;5.62;;
14663;SDS011;7419;52.184;5.944;2022-12-19T04:39:06;7.86;;;5.11;;
14663;SDS011;7419;52.184;5.944;2022-12-19T04:40:07;11.14;;;6.27;;
14663;SDS011;7419;52.184;5.944;2022-12-19T04:41:06;11.96;;;5.69;;
14663;SDS011;7419;52.184;5.944;2022-12-19T04:42:06;8.78;;;5.20;;
14663;SDS011;7419;52.184;5.944;2022-12-19T04:43:07;8.76;;;5.19;;
14663;SDS011;7419;52.184;5.944;2022-12-19T04:44:07;8.17;;;4.73;;
14663;SDS011;7419;52.184;5.944;2022-12-19T04:45:07;10.86;;;4.91;;
14663;SDS011;7419;52.184;5.944;2022-12-19T04:46:07;9.61;;;5.12;;
14663;SDS011;7419;52.184;5.944;2022-12-19T04:47:07;9.37;;;5.30;;
14663;SDS011;7419;52.184;5.944;2022-12-19T04:48:07;8.80;;;5.40;;
14663;SDS011;7419;52.184;5.944;2022-12-19T04:49:07;8.91;;;5.14;;
14663;SDS011;7419;52.184;5.944;2022-12-19T04:50:07;7.22;;;4.84;;
14663;SDS011;7419;52.184;5.944;2022-12-19T04:51:07;7.45;;;4.26;;
14663;SDS011;7419;52.184;5.944;2022-12-19T04:52:07;8.21;;;4.55;;
14663;SDS011;7419;52.184;5.944;2022-12-19T04:53:07;7.24;;;4.34;;
14663;SDS011;7419;52.184;5.944;2022-12-19T04:54:07;7.63;;;3.93;;
14663;SDS011;7419;52.184;5.944;2022-12-19T04:55:08;6.07;;;4.32;;
14663;SDS011;7419;52.184;5.944;2022-12-19T04:56:08;7.81;;;4.68;;
14663;SDS011;7419;52.184;5.944;2022-12-19T04:57:07;6.83;;;4.03;;
14663;SDS011;7419;52.184;5.944;2022-12-19T04:58:07;7.72;;;4.48;;
14663;SDS011;7419;52.184;5.944;2022-12-19T04:59:08;8.21;;;4.78;;
14663;SDS011;7419;52.184;5.944;2022-12-19T05:00:08;4.38;;;3.20;;
14663;SDS011;7419;52.184;5.944;2022-12-19T05:01:08;6.70;;;4.08;;
14663;SDS011;7419;52.184;5.944;2022-12-19T05:02:07;8.64;;;3.84;;
14663;SDS011;7419;52.184;5.944;2022-12-19T05:03:08;5.76;;;3.62;;
14663;SDS011;7419;52.184;5.944;2022-12-19T05:04:08;4.88;;;3.44;;
14663;SDS011;7419;52.184;5.944;2022-12-19T05:05:08;7.36;;;4.33;;
14663;SDS011;7419;52.184;5.944;2022-12-19T05:06:08;5.42;;;4.01;;
14663;SDS011;7419;52.184;5.944;2022-12-19T05:07:08;4.36;;;3.45;;
14663;SDS011;7419;52.184;5.944;2022-12-19T05:08:08;8.04;;;4.27;;
14663;SDS011;7419;52.184;5.944;2022-12-19T05:09:08;5.66;;;3.42;;
14663;SDS011;7419;52.184;5.944;2022-12-19T05:11:09;4.94;;;3.63;;
14663;SDS011;7419;52.184;5.944;2022-12-19T05:12:08;4.17;;;3.19;;
14663;SDS011;7419;52.184;5.944;2022-12-19T05:13:08;5.94;;;3.63;;
14663;SDS011;7419;52.184;5.944;2022-12-19T05:14:08;5.03;;;3.95;;
14663;SDS011;7419;52.184;5.944;2022-12-19T05:15:08;5.62;;;3.73;;
14663;SDS011;7419;52.184;5.944;2022-12-19T05:16:09;4.74;;;3.52;;
14663;SDS011;7419;52.184;5.944;2022-12-19T05:17:08;5.48;;;3.27;;
14663;SDS011;7419;52.184;5.944;2022-12-19T05:18:08;6.44;;;3.97;;
14663;SDS011;7419;52.184;5.944;2022-12-19T05:19:08;4.10;;;2.89;;
14663;SDS011;7419;52.184;5.944;2022-12-19T05:20:09;5.74;;;3.57;;
14663;SDS011;7419;52.184;5.944;2022-12-19T05:21:09;6.78;;;4.24;;
14663;SDS011;7419;52.184;5.944;2022-12-19T05:22:09;6.52;;;3.45;;
14663;SDS011;7419;52.184;5.944;2022-12-19T05:23:09;3.77;;;3.29;;
14663;SDS011;7419;52.184;5.944;2022-12-19T05:24:09;6.01;;;3.28;;
14663;SDS011;7419;52.184;5.944;2022-12-19T05:25:09;5.05;;;3.22;;
14663;SDS011;7419;52.184;5.944;2022-12-19T05:26:09;5.08;;;3.22;;
14663;SDS011;7419;52.184;5.944;2022-12-19T05:27:09;4.43;;;3.76;;
14663;SDS011;7419;52.184;5.944;2022-12-19T05:28:09;4.00;;;3.19;;
14663;SDS011;7419;52.184;5.944;2022-12-19T05:29:09;4.67;;;3.36;;
14663;SDS011;7419;52.184;5.944;2022-12-19T05:30:09;3.55;;;3.17;;
14663;SDS011;7419;52.184;5.944;2022-12-19T05:31:11;6.17;;;3.60;;
14663;SDS011;7419;52.184;5.944;2022-12-19T05:32:09;5.43;;;3.40;;
14663;SDS011;7419;52.184;5.944;2022-12-19T05:33:09;3.79;;;2.60;;
14663;SDS011;7419;52.184;5.944;2022-12-19T05:34:09;4.73;;;3.19;;
14663;SDS011;7419;52.184;5.944;2022-12-19T05:35:09;6.28;;;3.93;;
14663;SDS011;7419;52.184;5.944;2022-12-19T05:36:10;4.16;;;3.20;;
14663;SDS011;7419;52.184;5.944;2022-12-19T05:37:09;5.04;;;3.73;;
14663;SDS011;7419;52.184;5.944;2022-12-19T05:38:09;4.05;;;3.21;;
14663;SDS011;7419;52.184;5.944;2022-12-19T05:39:09;7.67;;;3.57;;
14663;SDS011;7419;52.184;5.944;2022-12-19T05:40:10;4.68;;;3.42;;
14663;SDS011;7419;52.184;5.944;2022-12-19T05:41:10;3.49;;;3.17;;
14663;SDS011;7419;52.184;5.944;2022-12-19T05:42:09;6.23;;;3.87;;
14663;SDS011;7419;52.184;5.944;2022-12-19T05:43:09;4.36;;;3.84;;
14663;SDS011;7419;52.184;5.944;2022-12-19T05:44:09;6.28;;;3.03;;
14663;SDS011;7419;52.184;5.944;2022-12-19T05:45:10;5.42;;;3.15;;
14663;SDS011;7419;52.184;5.944;2022-12-19T05:46:10;6.03;;;2.95;;
14663;SDS011;7419;52.184;5.944;2022-12-19T05:47:10;5.92;;;3.10;;
14663;SDS011;7419;52.184;5.944;2022-12-19T05:48:10;7.73;;;3.55;;
14663;SDS011;7419;52.184;5.944;2022-12-19T05:49:10;3.96;;;2.74;;
14663;SDS011;7419;52.184;5.944;2022-12-19T05:50:10;4.57;;;2.84;;
14663;SDS011;7419;52.184;5.944;2022-12-19T05:51:10;3.07;;;2.69;;
14663;SDS011;7419;52.184;5.944;2022-12-19T05:52:10;4.76;;;2.57;;
14663;SDS011;7419;52.184;5.944;2022-12-19T05:53:10;5.12;;;3.15;;
14663;SDS011;7419;52.184;5.944;2022-12-19T05:54:10;4.88;;;3.07;;
14663;SDS011;7419;52.184;5.944;2022-12-19T05:55:10;3.97;;;2.83;;
14663;SDS011;7419;52.184;5.944;2022-12-19T05:56:12;2.57;;;2.37;;
14663;SDS011;7419;52.184;5.944;2022-12-19T05:57:10;4.51;;;3.40;;
14663;SDS011;7419;52.184;5.944;2022-12-19T05:58:10;4.01;;;2.80;;
14663;SDS011;7419;52.184;5.944;2022-12-19T05:59:10;3.47;;;2.58;;
14663;SDS011;7419;52.184;5.944;2022-12-19T06:00:11;4.48;;;2.76;;
14663;SDS011;7419;52.184;5.944;2022-12-19T06:01:12;3.88;;;2.82;;
14663;SDS011;7419;52.184;5.944;2022-12-19T06:02:11;3.46;;;2.47;;
14663;SDS011;7419;52.184;5.944;2022-12-19T06:03:11;4.44;;;2.83;;
14663;SDS011;7419;52.184;5.944;2022-12-19T06:04:11;3.19;;;2.27;;
14663;SDS011;7419;52.184;5.944;2022-12-19T06:05:11;3.21;;;2.13;;